Terminal Aerodrome Forecast
Issued by NWS Spokane, WA

Home | Current Version | Previous Version | Text Only | Print | Product List | Glossary On
Versions: 1 2 3 4 5 6 7 8 9 10 11 12 13 14 15 16 17 18 19 20 21 22 23 24 25 26
952
FTUS46 KOTX 271741
TAFEAT
TAF
KEAT 271741Z 2718/2818 27006KT P6SM SCT070
     FM280100 30014G24KT P6SM FEW250
     FM280300 31008KT P6SM SCT250
     FM281400 31007KT P6SM BKN100 OVC200=

USA.gov is the U.S. government's official web portal to all federal, state and local government web resources and services.